Time;durP1;ratioP1;P1;durP2;ratioP2;P2;SDS_P1;SDS_P2;PMS_P1;PMS_P2;Temp;Humidity;BMP_temperature;BMP_pressure;BME280_temperature;BME280_humidity;BME280_pressure;Samples;Min_cycle;Max_cycle;Signal;HPM_P1;HPM_P2
2021/05/31 00:02:10;;;;;;;9.07;6.20;;;9.90;97.30;;;;;;4939633;29;20407;-92
2021/05/31 00:04:49;;;;;;;9.27;5.30;;;9.90;97.30;;;;;;4938146;29;20490;-93
2021/05/31 00:07:38;;;;;;;9.27;5.30;;;9.90;97.30;;;;;;4955134;29;20470;-93
2021/05/31 00:10:12;;;;;;;11.23;5.77;;;9.80;97.30;;;;;;4934700;29;20518;-92
2021/05/31 00:12:40;;;;;;;10.70;4.87;;;9.80;97.30;;;;;;4937009;29;20418;-92
2021/05/31 00:15:09;;;;;;;8.20;5.67;;;9.70;97.30;;;;;;4936074;29;20478;-92
2021/05/31 00:18:12;;;;;;;7.60;5.20;;;9.70;97.30;;;;;;4936268;29;20538;-92
2021/05/31 00:20:41;;;;;;;11.67;5.57;;;9.70;97.30;;;;;;4934004;29;20502;-93
2021/05/31 00:23:10;;;;;;;14.33;5.70;;;9.60;97.30;;;;;;4936490;29;20954;-92
2021/05/31 00:25:39;;;;;;;8.53;5.17;;;9.60;97.30;;;;;;4936570;29;20419;-93
2021/05/31 00:28:12;;;;;;;8.03;5.70;;;9.60;97.30;;;;;;4935690;29;20421;-93
2021/05/31 00:30:38;;;;;;;9.30;5.13;;;9.60;97.30;;;;;;4936788;29;20450;-92
2021/05/31 00:33:11;;;;;;;9.30;5.40;;;9.50;97.30;;;;;;4939102;29;20423;-93
2021/05/31 00:35:39;;;;;;;10.63;5.13;;;9.50;97.30;;;;;;4939800;29;20226;-93
2021/05/31 00:38:05;;;;;;;7.20;4.90;;;9.50;97.30;;;;;;4939951;29;20512;-93
2021/05/31 00:40:31;;;;;;;7.87;5.07;;;9.50;97.30;;;;;;4939759;29;20430;-93
2021/05/31 00:42:56;;;;;;;6.10;4.93;;;9.50;97.30;;;;;;4940549;29;20565;-93
2021/05/31 00:45:22;;;;;;;8.20;5.10;;;9.40;97.30;;;;;;4940323;29;20223;-93
2021/05/31 00:47:49;;;;;;;5.80;4.83;;;9.40;97.30;;;;;;4940218;29;20191;-92
2021/05/31 00:50:15;;;;;;;7.27;5.00;;;9.40;97.30;;;;;;4939900;29;20301;-92
2021/05/31 00:52:41;;;;;;;5.87;4.50;;;9.40;97.30;;;;;;4943700;28;20505;-92
2021/05/31 00:55:07;;;;;;;6.50;4.60;;;9.40;97.30;;;;;;4960307;28;20179;-92
2021/05/31 00:57:32;;;;;;;7.80;4.90;;;9.30;97.30;;;;;;4961395;28;20198;-92
2021/05/31 00:59:58;;;;;;;11.07;4.73;;;9.30;97.30;;;;;;4978970;28;20437;-92
2021/05/31 01:02:23;;;;;;;11.17;4.67;;;9.30;97.30;;;;;;4961060;28;20258;-92
2021/05/31 01:04:49;;;;;;;8.13;5.10;;;9.20;97.30;;;;;;4960712;28;20182;-92
2021/05/31 01:07:30;;;;;;;6.73;4.63;;;9.20;97.30;;;;;;4960465;28;20175;-92
2021/05/31 01:10:17;;;;;;;8.00;5.30;;;9.20;97.30;;;;;;4960413;28;20166;-92
2021/05/31 01:13:09;;;;;;;11.77;4.97;;;9.20;97.30;;;;;;4977547;28;20432;-92
2021/05/31 01:15:43;;;;;;;7.70;5.10;;;9.10;97.30;;;;;;4960216;28;20468;-93
2021/05/31 01:18:27;;;;;;;7.17;4.70;;;9.10;97.30;;;;;;4959375;28;20544;-92
2021/05/31 01:21:31;;;;;;;6.40;4.57;;;9.10;97.30;;;;;;4957841;28;20434;-92
2021/05/31 01:24:11;;;;;;;7.53;4.97;;;9.00;97.30;;;;;;4938697;29;20425;-93
2021/05/31 01:27:09;;;;;;;15.13;5.40;;;9.00;97.30;;;;;;4938863;29;20501;-92
2021/05/31 01:29:35;;;;;;;8.57;4.90;;;8.90;97.30;;;;;;4938673;29;20498;-92
2021/05/31 01:32:05;;;;;;;8.27;6.00;;;8.80;97.30;;;;;;4938522;29;20518;-92
2021/05/31 01:34:34;;;;;;;8.00;4.77;;;8.70;97.30;;;;;;4938480;29;20445;-92
2021/05/31 01:37:07;;;;;;;9.37;5.80;;;8.70;97.30;;;;;;4938372;29;20415;-92
2021/05/31 01:39:36;;;;;;;7.20;4.90;;;8.70;97.30;;;;;;4938801;29;20569;-92
2021/05/31 01:42:02;;;;;;;9.13;5.57;;;8.70;97.30;;;;;;4938049;28;20427;-93
2021/05/31 01:44:28;;;;;;;10.10;6.53;;;8.60;97.30;;;;;;4939294;29;20836;-92
2021/05/31 01:46:54;;;;;;;11.80;6.97;;;8.60;97.30;;;;;;4938759;29;20502;-92
2021/05/31 01:49:20;;;;;;;8.17;5.67;;;8.50;97.30;;;;;;4939042;29;20510;-92
2021/05/31 01:51:48;;;;;;;12.20;7.00;;;8.50;97.30;;;;;;4956178;28;20195;-92
2021/05/31 01:54:15;;;;;;;12.10;6.40;;;8.50;97.30;;;;;;4938650;29;20459;-93
2021/05/31 01:56:43;;;;;;;11.63;6.13;;;8.60;97.30;;;;;;4939103;29;20423;-92
2021/05/31 01:59:10;;;;;;;14.53;6.60;;;8.60;97.30;;;;;;4955916;29;20526;-92
2021/05/31 02:01:36;;;;;;;7.47;5.67;;;8.60;97.30;;;;;;4938816;29;20494;-92
2021/05/31 02:04:01;;;;;;;9.07;6.00;;;8.60;97.30;;;;;;4939725;29;20410;-92
2021/05/31 02:06:27;;;;;;;8.33;6.17;;;8.60;97.30;;;;;;4939694;29;20454;-92
2021/05/31 02:08:52;;;;;;;10.73;6.77;;;8.50;97.30;;;;;;4940100;29;20175;-94
2021/05/31 02:11:43;;;;;;;9.27;6.37;;;8.50;97.30;;;;;;4940099;29;20195;-92
2021/05/31 02:14:17;;;;;;;8.10;5.90;;;8.40;97.30;;;;;;4956953;29;20229;-92
2021/05/31 02:17:09;;;;;;;8.10;5.97;;;8.40;97.30;;;;;;4939958;29;20410;-92
2021/05/31 02:19:37;;;;;;;10.93;6.20;;;8.40;97.30;;;;;;4940063;29;20467;-92
2021/05/31 02:22:06;;;;;;;9.17;6.30;;;8.40;97.30;;;;;;4939203;29;20450;-91
2021/05/31 02:24:34;;;;;;;8.70;6.30;;;8.40;97.30;;;;;;4938236;29;20418;-92
2021/05/31 02:27:02;;;;;;;11.17;6.50;;;8.30;97.30;;;;;;4937796;29;20423;-92
2021/05/31 02:29:27;;;;;;;11.30;6.77;;;8.30;97.30;;;;;;4936976;29;20435;-92
2021/05/31 02:31:53;;;;;;;8.57;5.77;;;8.30;97.30;;;;;;4936899;29;20957;-93
2021/05/31 02:34:19;;;;;;;10.07;6.70;;;8.30;97.30;;;;;;4937258;29;20566;-92
2021/05/31 02:36:47;;;;;;;9.20;6.30;;;8.20;97.30;;;;;;4937087;29;20477;-92
2021/05/31 02:39:12;;;;;;;9.87;6.23;;;8.20;97.30;;;;;;4936612;29;20203;-92
2021/05/31 02:41:40;;;;;;;7.33;5.87;;;8.20;97.30;;;;;;4953917;28;20981;-92
2021/05/31 02:44:06;;;;;;;9.47;5.90;;;8.20;97.30;;;;;;4936646;29;20646;-92
2021/05/31 02:46:32;;;;;;;12.40;6.40;;;8.20;97.30;;;;;;4954089;29;20426;-92
2021/05/31 02:48:57;;;;;;;12.73;6.73;;;8.20;97.30;;;;;;4936574;29;20191;-92
2021/05/31 02:51:23;;;;;;;12.20;7.37;;;8.20;97.30;;;;;;4937615;29;20229;-92
2021/05/31 02:53:48;;;;;;;12.40;6.87;;;8.20;97.30;;;;;;4936815;29;20318;-92
2021/05/31 02:56:14;;;;;;;12.23;7.07;;;8.10;97.30;;;;;;4937300;29;20626;-92
2021/05/31 02:58:40;;;;;;;10.40;7.07;;;8.10;97.30;;;;;;4937273;29;20219;-93
2021/05/31 03:01:06;;;;;;;11.33;7.00;;;8.00;97.30;;;;;;4936957;29;20200;-92
2021/05/31 03:03:31;;;;;;;9.70;6.00;;;8.00;97.30;;;;;;4945793;28;20436;-92
2021/05/31 03:06:03;;;;;;;10.03;6.40;;;7.90;97.30;;;;;;4976156;28;20181;-91
2021/05/31 03:08:32;;;;;;;11.23;6.60;;;7.90;97.30;;;;;;4976205;28;20185;-92
2021/05/31 03:11:21;;;;;;;9.20;5.97;;;7.90;97.30;;;;;;4984913;23;20504;-92
2021/05/31 03:14:12;;;;;;;;;;;;;;;;;;;;;
2021/05/31 03:20:10;;;;;;;9.67;5.60;;;7.90;97.30;;;;;;5014776;28;20439;-91
2021/05/31 03:22:38;;;;;;;12.57;6.90;;;7.90;97.30;;;;;;4996315;28;20424;-92
2021/05/31 03:25:05;;;;;;;12.27;6.97;;;7.90;97.30;;;;;;5053474;23;20502;-90
2021/05/31 03:27:31;;;;;;;10.53;6.43;;;7.90;97.30;;;;;;4998463;28;20420;-91
2021/05/31 03:29:57;;;;;;;10.30;7.30;;;7.90;97.30;;;;;;4997003;28;20412;-90
2021/05/31 03:32:22;;;;;;;11.23;6.17;;;7.90;97.30;;;;;;4997093;28;20177;-91
2021/05/31 03:34:50;;;;;;;9.03;5.43;;;7.90;97.30;;;;;;4996399;28;20193;-91
2021/05/31 03:37:16;;;;;;;11.60;6.37;;;8.00;97.30;;;;;;4997182;28;20165;-90
2021/05/31 03:39:42;;;;;;;10.20;6.57;;;8.00;97.30;;;;;;4996288;28;20478;-90
2021/05/31 03:42:31;;;;;;;12.93;7.10;;;8.00;97.30;;;;;;4996854;28;20208;-91
2021/05/31 03:51:22;;;;;;;;;;;;;;;;;;;;;
2021/05/31 04:00:40;;;;;;;13.30;7.13;;;8.20;97.30;;;;;;4972694;28;20433;-91
2021/05/31 04:22:01;;;;;;;11.67;7.30;;;8.50;97.30;;;;;;5010351;28;20510;-92
2021/05/31 04:24:32;;;;;;;13.10;7.60;;;8.50;97.30;;;;;;4982741;28;20481;-92
2021/05/31 04:27:00;;;;;;;10.07;7.10;;;8.60;97.30;;;;;;4981523;28;20444;-92
2021/05/31 04:29:31;;;;;;;12.97;8.10;;;8.60;97.30;;;;;;4981499;28;20428;-92
2021/05/31 04:32:13;;;;;;;14.10;8.23;;;8.70;97.30;;;;;;4980723;28;20783;-90
2021/05/31 04:34:41;;;;;;;13.13;8.23;;;8.80;97.30;;;;;;4982411;28;20471;-90
2021/05/31 04:37:10;;;;;;;12.40;7.60;;;8.80;97.30;;;;;;4981508;28;20429;-90
2021/05/31 04:39:40;;;;;;;16.07;8.57;;;8.90;97.30;;;;;;4980561;28;20468;-90
2021/05/31 04:42:12;;;;;;;9.77;7.37;;;8.90;97.30;;;;;;4981535;28;20445;-91
2021/05/31 04:44:40;;;;;;;12.97;8.30;;;9.00;97.30;;;;;;4980926;28;20444;-90
2021/05/31 04:47:12;;;;;;;11.67;8.20;;;9.00;97.30;;;;;;4981001;28;20468;-90
2021/05/31 04:49:41;;;;;;;11.60;8.00;;;9.10;97.30;;;;;;4998541;28;20423;-91
2021/05/31 04:52:12;;;;;;;12.10;8.60;;;9.20;97.30;;;;;;4998583;28;20417;-90
2021/05/31 04:54:43;;;;;;;10.07;7.27;;;9.20;97.30;;;;;;4979959;28;20444;-91
2021/05/31 04:57:12;;;;;;;13.87;8.17;;;9.30;97.30;;;;;;4996920;28;20440;-90
2021/05/31 05:00:00;;;;;;;14.07;8.10;;;9.30;97.30;;;;;;4998402;28;20456;-90
2021/05/31 05:02:32;;;;;;;13.50;8.80;;;9.40;97.30;;;;;;4965595;28;20988;-90
2021/05/31 05:05:00;;;;;;;12.50;7.60;;;9.40;97.30;;;;;;4982040;28;20456;-90
2021/05/31 05:07:31;;;;;;;11.53;8.07;;;9.50;97.30;;;;;;4984648;28;20413;-90
2021/05/31 05:10:00;;;;;;;13.00;7.70;;;9.60;97.30;;;;;;4982890;28;20417;-90
2021/05/31 05:12:32;;;;;;;17.83;9.00;;;9.60;97.30;;;;;;4981243;28;20408;-91
2021/05/31 05:15:53;;;;;;;;;;;;;;;;;;;;;
2021/05/31 05:19:02;;;;;;;;;;;;;;;;;;;;;
2021/05/31 05:22:02;;;;;;;;;;;;;;;;;;;;;
2021/05/31 05:24:52;;;;;;;16.73;10.47;;;9.90;97.30;;;;;;4926740;29;20463;-90
2021/05/31 05:27:42;;;;;;;12.30;8.50;;;10.00;97.30;;;;;;4920613;29;20435;-90
2021/05/31 05:30:52;;;;;;;;;;;;;;;;;;;;;
2021/05/31 05:37:32;;;;;;;15.67;8.20;;;10.30;97.30;;;;;;4879942;29;20849;-91
2021/05/31 05:49:03;;;;;;;16.30;8.57;;;10.70;97.30;;;;;;4998059;28;20441;-91
2021/05/31 05:51:32;;;;;;;13.23;8.17;;;10.80;97.30;;;;;;4964013;28;20999;-91
2021/05/31 05:54:04;;;;;;;12.93;7.97;;;10.90;97.30;;;;;;4957907;28;20446;-90
2021/05/31 05:56:42;;;;;;;13.57;8.57;;;11.00;97.30;;;;;;4965408;28;20428;-91
2021/05/31 05:59:13;;;;;;;17.90;8.17;;;11.10;97.30;;;;;;5018285;28;20455;-92
2021/05/31 06:01:43;;;;;;;13.60;7.80;;;11.20;97.30;;;;;;5016774;28;20622;-92
2021/05/31 06:04:12;;;;;;;15.37;8.03;;;11.30;97.30;;;;;;5007571;28;20499;-92
2021/05/31 06:06:53;;;;;;;15.13;9.27;;;11.40;97.30;;;;;;5014785;28;20458;-92
2021/05/31 06:09:22;;;;;;;13.37;8.93;;;11.50;97.30;;;;;;4997362;28;20447;-92
2021/05/31 06:12:02;;;;;;;12.00;8.07;;;11.60;97.30;;;;;;4998331;28;20482;-92
2021/05/31 06:14:31;;;;;;;22.20;9.40;;;11.60;97.30;;;;;;4997367;28;20440;-92
2021/05/31 06:17:02;;;;;;;13.23;7.70;;;11.80;97.30;;;;;;4997681;28;20447;-92
2021/05/31 06:19:31;;;;;;;10.23;7.30;;;11.80;97.30;;;;;;4997928;28;20464;-92
2021/05/31 06:22:03;;;;;;;11.57;7.43;;;11.90;97.30;;;;;;4997727;28;20838;-92
2021/05/31 06:24:32;;;;;;;14.93;7.90;;;12.00;97.30;;;;;;4997212;28;20476;-92
2021/05/31 06:27:00;;;;;;;15.53;7.60;;;12.10;97.30;;;;;;4998700;28;20820;-92
2021/05/31 06:29:32;;;;;;;11.17;6.90;;;12.20;97.30;;;;;;4998364;28;21000;-92
2021/05/31 06:32:01;;;;;;;12.87;8.17;;;12.30;97.30;;;;;;4999200;28;20470;-91
2021/05/31 06:34:32;;;;;;;10.23;6.80;;;12.40;97.30;;;;;;4998242;28;20436;-92
2021/05/31 06:37:01;;;;;;;11.63;7.33;;;12.50;97.30;;;;;;4998259;28;20591;-92
2021/05/31 06:39:32;;;;;;;14.37;7.57;;;12.60;97.30;;;;;;4998629;28;20513;-92
2021/05/31 06:42:02;;;;;;;13.53;6.67;;;12.70;97.30;;;;;;4998435;28;20801;-92
2021/05/31 06:44:31;;;;;;;15.00;7.10;;;12.80;97.30;;;;;;4997141;28;20445;-92
2021/05/31 06:47:03;;;;;;;10.83;6.23;;;12.90;97.30;;;;;;4996332;28;20454;-92
2021/05/31 06:49:32;;;;;;;14.10;7.00;;;13.00;97.30;;;;;;4996871;28;20434;-92
2021/05/31 06:52:13;;;;;;;21.90;7.63;;;13.10;97.30;;;;;;4996796;28;20519;-92
2021/05/31 06:54:41;;;;;;;16.30;6.83;;;13.30;97.30;;;;;;4996524;28;20448;-92
2021/05/31 06:57:12;;;;;;;9.93;6.83;;;13.40;97.30;;;;;;4996759;28;20499;-92
2021/05/31 06:59:41;;;;;;;10.53;6.90;;;13.50;97.30;;;;;;4996166;28;20555;-92
2021/05/31 07:02:13;;;;;;;10.13;7.40;;;13.70;97.30;;;;;;4995878;28;20413;-92
2021/05/31 07:05:31;;;;;;;11.73;6.53;;;13.80;97.30;;;;;;4996433;28;20436;-92
2021/05/31 07:08:02;;;;;;;12.03;6.40;;;13.90;97.30;;;;;;4983799;28;20482;-92
2021/05/31 07:10:31;;;;;;;13.40;6.97;;;14.00;97.30;;;;;;4996361;28;20478;-91
2021/05/31 07:13:04;;;;;;;7.77;5.30;;;14.00;97.30;;;;;;4996304;28;20474;-92
2021/05/31 07:15:33;;;;;;;10.83;6.07;;;14.10;97.30;;;;;;4996525;28;20818;-92
2021/05/31 07:18:11;;;;;;;11.20;5.07;;;14.20;97.00;;;;;;4995738;28;20514;-92
2021/05/31 07:20:42;;;;;;;11.90;5.77;;;14.30;96.90;;;;;;4996569;28;20874;-92
2021/05/31 07:23:11;;;;;;;16.83;5.97;;;14.40;96.20;;;;;;4997424;28;20571;-92
2021/05/31 07:25:42;;;;;;;11.13;5.37;;;14.50;95.30;;;;;;4997807;28;20416;-91
2021/05/31 07:28:11;;;;;;;13.93;4.80;;;14.60;95.30;;;;;;5000297;28;20866;-91
2021/05/31 07:30:42;;;;;;;7.80;5.30;;;14.60;93.60;;;;;;5016496;28;20432;-92
2021/05/31 07:33:12;;;;;;;9.37;5.17;;;14.70;93.50;;;;;;5019261;28;20416;-91
2021/05/31 07:35:42;;;;;;;5.37;3.63;;;14.80;94.30;;;;;;5018192;28;20442;-90
2021/05/31 07:38:10;;;;;;;7.87;4.07;;;14.80;90.80;;;;;;5018893;28;20479;-91
2021/05/31 07:40:40;;;;;;;7.43;4.30;;;14.90;90.10;;;;;;5015657;28;20426;-91
2021/05/31 07:43:31;;;;;;;9.20;4.57;;;15.00;89.80;;;;;;5017032;28;20468;-92
2021/05/31 07:46:00;;;;;;;10.77;4.20;;;15.10;90.10;;;;;;5011375;28;20415;-92
2021/05/31 07:48:52;;;;;;;5.00;3.90;;;15.20;91.00;;;;;;5017019;28;20418;-92
2021/05/31 07:51:21;;;;;;;10.17;4.13;;;15.30;90.30;;;;;;5023740;28;20447;-92
2021/05/31 07:53:51;;;;;;;6.30;4.57;;;15.30;89.00;;;;;;5017908;28;20428;-91
2021/05/31 07:56:21;;;;;;;7.07;3.87;;;15.40;87.60;;;;;;5015129;28;20438;-91
2021/05/31 07:58:47;;;;;;;8.63;4.77;;;15.50;88.00;;;;;;5017647;28;20466;-92
2021/05/31 08:01:13;;;;;;;8.10;4.53;;;15.60;88.40;;;;;;5019972;28;20415;-93
2021/05/31 08:03:42;;;;;;;12.03;4.50;;;15.70;87.60;;;;;;5019805;28;20219;-92
2021/05/31 08:06:11;;;;;;;5.60;4.27;;;15.90;88.10;;;;;;5022674;28;20176;-92
2021/05/31 08:08:42;;;;;;;12.23;5.30;;;16.00;86.00;;;;;;5022046;28;20420;-92
2021/05/31 08:11:11;;;;;;;8.83;5.10;;;16.10;87.30;;;;;;5021983;28;20801;-93
2021/05/31 08:13:42;;;;;;;6.87;4.30;;;16.20;85.90;;;;;;5021287;28;20443;-93
2021/05/31 08:16:12;;;;;;;11.53;4.53;;;16.30;86.00;;;;;;5021930;28;20459;-93
2021/05/31 08:18:40;;;;;;;7.70;5.23;;;16.40;86.10;;;;;;5018985;28;20451;-92
2021/05/31 08:21:13;;;;;;;8.63;5.63;;;16.50;88.20;;;;;;5019611;28;20435;-92
2021/05/31 08:23:41;;;;;;;7.93;5.47;;;16.60;90.50;;;;;;5035327;28;20471;-92
2021/05/31 08:26:09;;;;;;;11.10;6.00;;;16.70;90.50;;;;;;5018180;28;20995;-91
2021/05/31 08:28:38;;;;;;;10.70;5.73;;;16.80;89.00;;;;;;5018413;28;20438;-93
2021/05/31 08:31:04;;;;;;;7.53;4.87;;;16.80;89.80;;;;;;5018001;28;20415;-92
2021/05/31 08:33:30;;;;;;;8.33;5.70;;;17.00;90.70;;;;;;5014922;28;20455;-92
2021/05/31 08:35:56;;;;;;;7.67;6.10;;;17.10;89.00;;;;;;5014855;28;20767;-93
2021/05/31 08:38:21;;;;;;;7.83;5.30;;;17.20;88.50;;;;;;5015340;28;20200;-92
2021/05/31 08:40:47;;;;;;;9.00;5.80;;;17.20;87.80;;;;;;5016081;28;20177;-92
2021/05/31 08:43:14;;;;;;;11.13;5.80;;;17.20;87.80;;;;;;5017152;28;20268;-94
2021/05/31 08:45:42;;;;;;;9.40;5.30;;;17.30;87.30;;;;;;5017214;28;20439;-92
2021/05/31 08:48:10;;;;;;;7.80;5.10;;;17.40;88.10;;;;;;5016512;28;20431;-90
2021/05/31 08:50:39;;;;;;;8.47;5.57;;;17.60;87.00;;;;;;5029650;28;20435;-91
2021/05/31 08:53:06;;;;;;;8.17;5.00;;;17.60;87.10;;;;;;5008151;28;20992;-91
2021/05/31 08:55:32;;;;;;;4.97;4.50;;;17.70;85.50;;;;;;5018470;28;20907;-91
2021/05/31 08:57:59;;;;;;;7.03;4.40;;;17.70;86.00;;;;;;5018203;28;20549;-92
2021/05/31 09:00:31;;;;;;;6.93;4.53;;;17.70;86.10;;;;;;5017986;28;20454;-90
2021/05/31 09:03:02;;;;;;;7.33;4.07;;;17.70;85.50;;;;;;5036188;28;20442;-90
2021/05/31 09:05:42;;;;;;;7.23;3.80;;;17.80;85.60;;;;;;5011971;28;21023;-91
2021/05/31 09:08:15;;;;;;;6.33;4.30;;;17.90;84.70;;;;;;5017918;28;20517;-91
2021/05/31 09:10:45;;;;;;;8.20;4.57;;;17.90;83.60;;;;;;5013377;28;20426;-91
2021/05/31 09:13:25;;;;;;;5.17;3.80;;;18.10;85.40;;;;;;5018293;28;20492;-91
2021/05/31 09:16:07;;;;;;;4.73;3.47;;;18.20;81.90;;;;;;5018850;28;20953;-92
2021/05/31 09:18:34;;;;;;;10.07;3.93;;;18.30;82.40;;;;;;5018596;28;20463;-91
2021/05/31 09:21:17;;;;;;;5.37;3.27;;;18.40;81.20;;;;;;5017930;28;20435;-91
2021/05/31 09:23:44;;;;;;;5.37;3.60;;;18.50;82.00;;;;;;5016989;28;20477;-91
2021/05/31 09:26:09;;;;;;;5.83;3.03;;;18.60;81.80;;;;;;4999629;28;20997;-89
2021/05/31 09:28:38;;;;;;;6.17;3.80;;;18.60;80.30;;;;;;4998324;28;20424;-91
2021/05/31 09:31:18;;;;;;;5.23;3.33;;;18.70;81.80;;;;;;5018001;28;20188;-91
2021/05/31 09:33:55;;;;;;;4.30;3.50;;;18.70;79.00;;;;;;5020024;28;20439;-90
2021/05/31 09:36:20;;;;;;;6.50;3.50;;;18.70;79.40;;;;;;5019588;28;20979;-90
2021/05/31 09:38:49;;;;;;;7.23;3.97;;;18.70;77.10;;;;;;5016077;28;20459;-90
2021/05/31 09:41:42;;;;;;;5.77;3.60;;;18.70;78.60;;;;;;5019968;28;20169;-91
2021/05/31 09:44:10;;;;;;;6.67;4.13;;;18.80;81.00;;;;;;5015587;28;20469;-90
2021/05/31 09:46:37;;;;;;;6.83;4.33;;;19.00;81.70;;;;;;5015821;28;20435;-90
2021/05/31 09:49:26;;;;;;;7.70;4.53;;;19.00;81.50;;;;;;5013076;28;20421;-91
2021/05/31 09:51:54;;;;;;;6.10;3.90;;;18.80;82.10;;;;;;4997295;28;20420;-91
2021/05/31 09:54:31;;;;;;;9.67;4.13;;;18.60;81.40;;;;;;4996615;28;20523;-91
2021/05/31 09:56:59;;;;;;;4.23;3.67;;;18.70;83.00;;;;;;5014169;28;20434;-90
2021/05/31 09:59:29;;;;;;;7.30;3.60;;;18.60;81.60;;;;;;4995888;28;20471;-91
2021/05/31 10:01:59;;;;;;;5.07;3.50;;;18.50;80.60;;;;;;4996087;28;20435;-90
2021/05/31 10:04:44;;;;;;;5.83;3.60;;;18.30;80.50;;;;;;5008067;28;20946;-90
2021/05/31 10:07:39;;;;;;;8.60;2.80;;;18.20;80.40;;;;;;5017380;28;20415;-91
2021/05/31 10:10:06;;;;;;;7.20;3.60;;;18.30;82.30;;;;;;5016485;28;20955;-90
2021/05/31 10:12:31;;;;;;;6.83;3.20;;;18.60;81.10;;;;;;5012905;28;20514;-90
2021/05/31 10:14:57;;;;;;;3.97;3.10;;;18.80;80.80;;;;;;5002215;28;20479;-88
2021/05/31 10:17:25;;;;;;;9.90;3.50;;;19.00;77.80;;;;;;5020524;28;20267;-89
2021/05/31 10:19:51;;;;;;;8.07;3.37;;;19.10;80.00;;;;;;5003681;28;20254;-88
2021/05/31 10:22:17;;;;;;;8.23;3.77;;;19.20;78.00;;;;;;5017130;28;20502;-88
2021/05/31 10:24:44;;;;;;;6.30;3.47;;;19.30;79.50;;;;;;5035846;28;20271;-89
2021/05/31 10:27:13;;;;;;;5.43;3.10;;;19.40;79.20;;;;;;5015313;28;20423;-88
2021/05/31 10:29:43;;;;;;;5.93;3.53;;;19.60;78.10;;;;;;5034250;28;20406;-88
2021/05/31 10:32:11;;;;;;;5.07;3.20;;;19.70;78.00;;;;;;5016531;28;20512;-90
2021/05/31 10:34:50;;;;;;;5.30;3.77;;;19.80;77.20;;;;;;5015885;28;20883;-89
2021/05/31 10:37:22;;;;;;;3.73;3.53;;;19.80;77.00;;;;;;5009391;28;20430;-89
2021/05/31 10:42:23;;;;;;;4.30;2.97;;;19.90;76.90;;;;;;4904946;22;20487;-79
2021/05/31 10:44:49;;;;;;;7.40;2.87;;;20.00;75.70;;;;;;5015182;28;20443;-80
2021/05/31 10:47:25;;;;;;;5.10;3.17;;;20.00;74.70;;;;;;5015358;28;20841;-79
2021/05/31 10:49:55;;;;;;;4.50;2.73;;;20.10;77.20;;;;;;5013586;28;20187;-80
2021/05/31 10:52:21;;;;;;;4.40;3.40;;;20.10;77.10;;;;;;5030855;28;20844;-79
2021/05/31 10:54:47;;;;;;;5.20;3.33;;;20.20;76.50;;;;;;5014500;28;20427;-78
2021/05/31 10:57:12;;;;;;;11.90;3.27;;;20.20;76.00;;;;;;5016207;28;20273;-80
2021/05/31 10:59:49;;;;;;;5.87;3.20;;;20.20;75.20;;;;;;5014962;28;20197;-80
2021/05/31 11:02:26;;;;;;;4.10;3.00;;;20.20;75.20;;;;;;5014215;28;20254;-79
2021/05/31 11:05:04;;;;;;;5.83;3.10;;;20.20;72.10;;;;;;4999431;28;20427;-80
2021/05/31 11:07:30;;;;;;;4.50;2.90;;;20.20;73.30;;;;;;4995306;28;20785;-81
2021/05/31 11:09:56;;;;;;;5.80;2.70;;;20.30;74.80;;;;;;4995288;28;20519;-79
2021/05/31 11:12:32;;;;;;;4.23;2.70;;;20.40;77.10;;;;;;4995462;28;20571;-80
2021/05/31 11:15:08;;;;;;;3.97;3.10;;;20.60;75.00;;;;;;4995272;28;20181;-79
2021/05/31 11:17:46;;;;;;;4.30;2.30;;;20.70;75.50;;;;;;4997855;28;20875;-79
2021/05/31 11:20:13;;;;;;;6.40;3.37;;;20.70;75.40;;;;;;4997582;28;20441;-79
2021/05/31 11:22:38;;;;;;;5.20;3.33;;;20.80;76.40;;;;;;5013605;28;20416;-80
2021/05/31 11:25:09;;;;;;;3.53;2.90;;;20.80;74.20;;;;;;4995192;28;20789;-80
2021/05/31 11:27:41;;;;;;;6.63;3.57;;;20.80;77.40;;;;;;4995221;28;20269;-79
2021/05/31 11:30:21;;;;;;;3.77;3.13;;;21.00;76.20;;;;;;4994688;28;20435;-78
2021/05/31 11:32:47;;;;;;;3.70;3.07;;;21.10;77.30;;;;;;4995878;28;20435;-81
2021/05/31 11:35:15;;;;;;;3.60;3.10;;;21.30;75.70;;;;;;5014369;28;20412;-80
2021/05/31 11:37:42;;;;;;;4.90;3.33;;;21.40;76.90;;;;;;5019387;28;20187;-81
2021/05/31 11:40:40;;;;;;;4.27;3.20;;;21.50;76.40;;;;;;5037139;28;20427;-80
2021/05/31 11:43:08;;;;;;;4.13;3.30;;;21.60;76.90;;;;;;5003474;28;20830;-81
2021/05/31 11:45:37;;;;;;;5.67;3.40;;;21.60;73.80;;;;;;5017185;28;20686;-79
2021/05/31 11:48:15;;;;;;;3.47;3.03;;;21.40;72.30;;;;;;5016652;28;20427;-79
2021/05/31 11:50:44;;;;;;;5.53;3.20;;;21.20;72.20;;;;;;5015074;28;20469;-79
2021/05/31 11:53:15;;;;;;;6.70;3.70;;;21.00;72.60;;;;;;4998100;28;20779;-80
2021/05/31 11:55:42;;;;;;;7.13;3.27;;;20.90;71.70;;;;;;4999952;28;20436;-81
2021/05/31 11:58:08;;;;;;;5.53;3.93;;;21.00;74.70;;;;;;5014727;28;20546;-81
2021/05/31 12:00:41;;;;;;;9.40;4.50;;;21.10;75.20;;;;;;5000454;28;20482;-80
2021/05/31 12:03:18;;;;;;;5.80;3.77;;;21.10;74.20;;;;;;4999820;28;20420;-80
2021/05/31 12:05:44;;;;;;;6.40;3.90;;;21.20;74.20;;;;;;5018126;28;20984;-81
2021/05/31 12:08:12;;;;;;;8.13;5.10;;;21.20;74.60;;;;;;5017290;28;20473;-80
2021/05/31 12:10:39;;;;;;;7.33;4.30;;;21.30;74.30;;;;;;5017389;28;20447;-80
2021/05/31 12:13:05;;;;;;;4.70;3.80;;;21.40;74.10;;;;;;5017155;28;20423;-81
2021/05/31 12:15:31;;;;;;;5.50;3.50;;;21.40;71.70;;;;;;5015727;28;20477;-80
2021/05/31 12:18:17;;;;;;;4.57;3.80;;;21.40;73.20;;;;;;5017215;28;20188;-81
2021/05/31 12:20:43;;;;;;;8.20;3.73;;;21.30;71.40;;;;;;5017342;28;20819;-81
2021/05/31 12:23:18;;;;;;;5.30;3.80;;;21.40;74.00;;;;;;5016860;28;20816;-80
2021/05/31 12:25:44;;;;;;;3.90;3.23;;;21.70;79.70;;;;;;5016716;28;20422;-81
2021/05/31 12:28:09;;;;;;;7.70;3.77;;;22.00;76.50;;;;;;5020019;28;20415;-80
2021/05/31 12:30:35;;;;;;;5.73;3.37;;;22.20;75.40;;;;;;5017032;28;20290;-80
2021/05/31 12:33:09;;;;;;;6.13;3.20;;;22.40;71.80;;;;;;5002478;28;20181;-81
2021/05/31 12:35:35;;;;;;;5.33;3.20;;;22.60;73.90;;;;;;5004314;28;20662;-81
2021/05/31 12:38:01;;;;;;;11.63;3.73;;;22.80;73.90;;;;;;5004984;28;20456;-81
2021/05/31 12:40:28;;;;;;;6.90;3.40;;;23.00;75.90;;;;;;5003240;28;20213;-81
2021/05/31 12:42:54;;;;;;;4.83;3.70;;;23.10;74.50;;;;;;5003072;28;20475;-81
2021/05/31 12:45:20;;;;;;;6.43;3.30;;;23.10;73.10;;;;;;5003210;28;20466;-80
2021/05/31 12:47:49;;;;;;;8.23;3.37;;;23.00;72.00;;;;;;5003174;28;20574;-79
2021/05/31 12:50:25;;;;;;;5.03;3.43;;;22.90;72.20;;;;;;5010599;28;20427;-79
2021/05/31 12:52:51;;;;;;;8.43;3.70;;;22.80;72.30;;;;;;5018857;28;20434;-80
2021/05/31 12:55:25;;;;;;;4.70;3.03;;;22.80;74.10;;;;;;5040350;28;20430;-79
2021/05/31 12:57:52;;;;;;;4.97;3.10;;;23.00;71.80;;;;;;5021325;28;20177;-80
2021/05/31 13:00:19;;;;;;;7.60;3.10;;;23.00;72.70;;;;;;5002022;28;20975;-76
2021/05/31 13:02:52;;;;;;;5.63;3.60;;;23.10;74.20;;;;;;5000088;28;21124;-76
2021/05/31 13:05:21;;;;;;;5.73;3.43;;;23.20;73.90;;;;;;5004758;28;20423;-77
2021/05/31 13:07:49;;;;;;;5.07;3.33;;;23.10;71.30;;;;;;5016404;28;20460;-77
2021/05/31 13:10:23;;;;;;;7.00;3.27;;;23.10;72.20;;;;;;5015396;28;20477;-78
2021/05/31 13:12:56;;;;;;;6.37;3.37;;;23.30;73.50;;;;;;5015878;28;20419;-78
2021/05/31 13:15:35;;;;;;;4.13;3.20;;;23.40;71.20;;;;;;5015430;28;20449;-78
2021/05/31 13:18:06;;;;;;;3.60;3.40;;;23.50;72.50;;;;;;5013869;28;20950;-78
2021/05/31 13:20:34;;;;;;;5.13;3.53;;;23.70;71.20;;;;;;5013373;28;20439;-79
2021/05/31 13:23:01;;;;;;;4.13;3.30;;;23.70;70.70;;;;;;5014827;28;20988;-79
2021/05/31 13:25:30;;;;;;;3.87;3.30;;;23.60;71.40;;;;;;5014389;28;20431;-77
2021/05/31 13:28:07;;;;;;;4.20;3.30;;;23.40;71.00;;;;;;5015514;28;20472;-79
2021/05/31 13:30:35;;;;;;;7.10;3.63;;;23.20;71.00;;;;;;5015279;28;20441;-79
2021/05/31 13:33:02;;;;;;;5.47;3.60;;;23.20;71.30;;;;;;5014582;28;20481;-79
2021/05/31 13:35:29;;;;;;;6.27;3.33;;;23.00;69.80;;;;;;5015011;28;20958;-78
2021/05/31 13:37:57;;;;;;;5.07;3.30;;;22.90;73.30;;;;;;5031921;28;20489;-79
2021/05/31 13:40:48;;;;;;;7.40;3.93;;;23.00;71.70;;;;;;5014869;28;20844;-79
2021/05/31 13:43:16;;;;;;;5.07;3.63;;;23.20;70.90;;;;;;5021382;28;20423;-79
2021/05/31 13:45:47;;;;;;;4.87;3.77;;;23.30;69.10;;;;;;5014188;28;20450;-79
2021/05/31 13:48:14;;;;;;;8.33;3.43;;;23.20;69.80;;;;;;5013666;28;20529;-78
2021/05/31 13:50:42;;;;;;;5.70;3.47;;;23.40;73.10;;;;;;5014734;28;20966;-79
2021/05/31 13:53:08;;;;;;;6.73;3.93;;;23.50;73.80;;;;;;5014655;28;20998;-79
2021/05/31 13:55:35;;;;;;;7.63;3.67;;;23.80;75.50;;;;;;5013964;28;20565;-79
2021/05/31 13:58:03;;;;;;;4.70;3.90;;;24.10;71.90;;;;;;5014278;28;20180;-79
2021/05/31 14:00:30;;;;;;;6.70;4.00;;;24.30;72.30;;;;;;5013407;28;20431;-79
2021/05/31 14:02:57;;;;;;;4.00;3.30;;;24.30;70.80;;;;;;5014339;28;20420;-79
2021/05/31 14:05:29;;;;;;;6.33;3.50;;;24.50;72.70;;;;;;4995814;28;20405;-79
2021/05/31 14:07:56;;;;;;;6.20;3.17;;;24.80;73.90;;;;;;4995055;28;20923;-79